createdAt,value
2019-05-07T00:00:17.462Z,5.80
2019-05-07T00:01:17.447Z,5.00
2019-05-07T00:02:17.437Z,4.90
2019-05-07T00:03:17.420Z,5.10
2019-05-07T00:04:17.443Z,5.50
2019-05-07T00:05:17.414Z,5.00
2019-05-07T00:06:17.407Z,4.70
2019-05-07T00:07:18.082Z,5.60
2019-05-07T00:08:17.383Z,5.60
2019-05-07T00:09:17.358Z,4.80
2019-05-07T00:10:17.368Z,5.40
2019-05-07T00:11:17.347Z,5.10
2019-05-07T00:12:17.326Z,5.60
2019-05-07T00:13:17.325Z,4.80
2019-05-07T00:14:17.301Z,4.90
2019-05-07T00:15:17.388Z,4.90
2019-05-07T00:16:17.283Z,4.70
2019-05-07T00:17:17.274Z,4.80
2019-05-07T00:18:17.271Z,5.50
2019-05-07T00:19:17.302Z,5.20
2019-05-07T00:20:17.275Z,4.90
2019-05-07T00:21:17.233Z,5.20
2019-05-07T00:22:17.223Z,4.60
2019-05-07T00:23:17.209Z,5.00
2019-05-07T00:24:17.210Z,4.80
2019-05-07T00:25:17.234Z,5.20
2019-05-07T00:26:17.182Z,5.40
2019-05-07T00:27:17.212Z,5.00
2019-05-07T00:28:17.160Z,5.20
2019-05-07T00:29:17.180Z,5.20
2019-05-07T00:30:17.141Z,5.20
2019-05-07T00:31:17.150Z,4.70
2019-05-07T00:32:17.120Z,5.30
2019-05-07T00:33:17.146Z,5.20
2019-05-07T00:34:17.108Z,5.50
2019-05-07T00:35:17.193Z,5.50
2019-05-07T00:36:17.083Z,5.60
2019-05-07T00:37:17.091Z,5.30
2019-05-07T00:38:17.199Z,5.40
2019-05-07T00:39:17.075Z,5.10
2019-05-07T00:40:17.027Z,5.50
2019-05-07T00:41:17.031Z,5.40
2019-05-07T00:42:17.020Z,5.40
2019-05-07T00:43:17.002Z,5.40
2019-05-07T00:44:16.985Z,5.40
2019-05-07T00:45:20.762Z,5.20
2019-05-07T00:46:17.973Z,5.20
2019-05-07T00:47:16.959Z,5.60
2019-05-07T00:48:16.960Z,5.10
2019-05-07T00:49:16.937Z,5.50
2019-05-07T00:50:16.928Z,6.30
2019-05-07T00:51:16.950Z,5.30
2019-05-07T00:52:16.911Z,5.80
2019-05-07T00:53:16.899Z,5.40
2019-05-07T00:54:16.899Z,5.30
2019-05-07T00:55:16.878Z,5.60
2019-05-07T00:56:16.865Z,5.40
2019-05-07T00:57:16.885Z,5.80
2019-05-07T00:58:16.842Z,5.50
2019-05-07T00:59:16.845Z,5.20
2019-05-07T01:00:16.843Z,5.80
2019-05-07T01:01:16.812Z,5.70
2019-05-07T01:02:16.794Z,5.60
2019-05-07T01:03:16.875Z,5.70
2019-05-07T01:04:16.961Z,5.00
2019-05-07T01:05:16.766Z,5.30
2019-05-07T01:06:16.755Z,5.80
2019-05-07T01:07:16.742Z,5.40
2019-05-07T01:08:16.731Z,5.60
2019-05-07T01:09:16.755Z,5.20
2019-05-07T01:10:16.720Z,5.60
2019-05-07T01:11:16.730Z,5.60
2019-05-07T01:12:16.691Z,5.30
2019-05-07T01:13:16.674Z,5.50
2019-05-07T01:14:16.668Z,5.60
2019-05-07T01:15:27.979Z,5.80
2019-05-07T01:16:17.654Z,5.50
2019-05-07T01:17:16.687Z,5.20
2019-05-07T01:18:16.627Z,5.20
2019-05-07T01:19:16.612Z,5.50
2019-05-07T01:20:16.629Z,5.20
2019-05-07T01:21:16.611Z,5.40
2019-05-07T01:22:16.600Z,5.50
2019-05-07T01:23:16.580Z,5.30
2019-05-07T01:24:16.567Z,5.80
2019-05-07T01:25:16.551Z,5.80
2019-05-07T01:26:16.534Z,5.80
2019-05-07T01:27:16.557Z,5.60
2019-05-07T01:28:16.517Z,6.10
2019-05-07T01:29:16.578Z,5.90
2019-05-07T01:30:16.505Z,5.60
2019-05-07T01:31:16.485Z,5.40
2019-05-07T01:32:16.473Z,5.80
2019-05-07T01:33:16.499Z,6.10
2019-05-07T01:34:16.482Z,5.70
2019-05-07T01:35:16.441Z,6.60
2019-05-07T01:36:16.430Z,5.80
2019-05-07T01:37:16.420Z,5.60
2019-05-07T01:38:16.407Z,5.30
2019-05-07T01:39:16.422Z,6.30
2019-05-07T01:40:16.390Z,5.80
2019-05-07T01:41:16.378Z,5.50
2019-05-07T01:42:16.367Z,5.80
2019-05-07T01:43:16.359Z,6.00
2019-05-07T01:44:16.340Z,5.80
2019-05-07T01:45:16.356Z,5.10
2019-05-07T01:46:16.320Z,5.70
2019-05-07T01:47:16.308Z,5.40
2019-05-07T01:48:16.298Z,5.40
2019-05-07T01:49:16.296Z,5.40
2019-05-07T01:50:16.273Z,5.80
2019-05-07T01:51:16.287Z,5.60
2019-05-07T01:52:16.253Z,5.80
2019-05-07T01:53:16.253Z,5.40
2019-05-07T01:54:16.234Z,6.20
2019-05-07T01:55:16.227Z,5.80
2019-05-07T01:56:16.209Z,5.80
2019-05-07T01:57:16.223Z,6.30
2019-05-07T01:58:16.191Z,6.40
2019-05-07T01:59:16.186Z,6.10
2019-05-07T02:00:16.170Z,5.80
2019-05-07T02:01:16.172Z,5.60
2019-05-07T02:02:16.145Z,5.90
2019-05-07T02:03:16.159Z,5.60
2019-05-07T02:04:16.137Z,5.80
2019-05-07T02:05:16.125Z,5.20
2019-05-07T02:06:16.114Z,5.90
2019-05-07T02:07:16.094Z,6.10
2019-05-07T02:08:16.085Z,5.40
2019-05-07T02:09:16.096Z,5.40
2019-05-07T02:10:16.058Z,6.00
2019-05-07T02:11:16.063Z,6.10
2019-05-07T02:12:16.972Z,6.30
2019-05-07T02:13:16.058Z,5.50
2019-05-07T02:14:16.026Z,5.80
2019-05-07T02:15:16.007Z,6.10
2019-05-07T02:16:15.996Z,5.90
2019-05-07T02:17:15.989Z,5.60
2019-05-07T02:18:15.986Z,5.70
2019-05-07T02:19:15.998Z,5.40
2019-05-07T02:20:15.946Z,5.50
2019-05-07T02:21:15.946Z,5.70
2019-05-07T02:22:15.933Z,5.50
2019-05-07T02:23:15.916Z,5.90
2019-05-07T02:24:15.908Z,5.90
2019-05-07T02:25:15.915Z,6.20
2019-05-07T02:26:15.884Z,5.90
2019-05-07T02:27:15.870Z,5.80
2019-05-07T02:28:15.876Z,6.10
2019-05-07T02:29:15.850Z,5.60
2019-05-07T02:30:15.882Z,5.70
2019-05-07T02:31:15.859Z,5.90
2019-05-07T02:32:15.833Z,5.40
2019-05-07T02:33:15.815Z,5.40
2019-05-07T02:34:15.803Z,5.60
2019-05-07T02:35:15.786Z,5.90
2019-05-07T02:36:15.827Z,5.80
2019-05-07T02:37:15.768Z,5.50
2019-05-07T02:38:15.804Z,6.00
2019-05-07T02:39:15.772Z,6.10
2019-05-07T02:40:15.744Z,6.20
2019-05-07T02:41:15.723Z,5.70
2019-05-07T02:42:15.740Z,6.10
2019-05-07T02:43:15.751Z,5.90
2019-05-07T02:44:15.716Z,5.90
2019-05-07T02:45:15.688Z,6.00
2019-05-07T02:46:26.323Z,5.90
2019-05-07T02:47:16.680Z,6.40
2019-05-07T02:48:15.656Z,6.50
2019-05-07T02:49:15.633Z,6.60
2019-05-07T02:50:15.632Z,6.20
2019-05-07T02:51:15.621Z,6.30
2019-05-07T02:52:15.661Z,6.10
2019-05-07T02:53:18.044Z,6.00
2019-05-07T02:54:15.584Z,6.20
2019-05-07T02:55:15.591Z,6.10
2019-05-07T02:56:15.566Z,5.80
2019-05-07T02:57:16.983Z,6.20
2019-05-07T02:58:15.550Z,6.30
2019-05-07T02:59:15.558Z,6.50
2019-05-07T03:00:19.139Z,6.50
2019-05-07T03:01:15.512Z,6.50
2019-05-07T03:02:15.505Z,6.20
2019-05-07T03:03:15.483Z,5.80
2019-05-07T03:04:15.507Z,5.70
2019-05-07T03:05:15.478Z,6.10
2019-05-07T03:06:15.461Z,6.00
2019-05-07T03:07:15.440Z,5.90
2019-05-07T03:08:15.447Z,6.50
2019-05-07T03:09:15.425Z,5.30
2019-05-07T03:10:15.433Z,5.80
2019-05-07T03:11:15.404Z,5.80
2019-05-07T03:12:15.398Z,5.50
2019-05-07T03:13:15.383Z,6.10
2019-05-07T03:14:15.370Z,6.30
2019-05-07T03:15:15.362Z,6.10
2019-05-07T03:16:15.366Z,6.20
2019-05-07T03:17:15.340Z,5.80
2019-05-07T03:18:18.815Z,6.00
2019-05-07T03:19:15.327Z,6.50
2019-05-07T03:20:15.303Z,5.80
2019-05-07T03:21:15.306Z,6.40
2019-05-07T03:22:15.303Z,6.10
2019-05-07T03:23:15.278Z,6.10
2019-05-07T03:24:15.277Z,6.90
2019-05-07T03:25:15.284Z,6.30
2019-05-07T03:26:15.240Z,6.00
2019-05-07T03:27:15.249Z,5.70
2019-05-07T03:28:15.237Z,6.10
2019-05-07T03:29:15.207Z,6.70
2019-05-07T03:30:16.666Z,6.50
2019-05-07T03:31:16.888Z,6.40
2019-05-07T03:32:16.241Z,6.80
2019-05-07T03:33:16.391Z,6.60
2019-05-07T03:34:16.569Z,6.90
2019-05-07T03:35:16.464Z,6.30
2019-05-07T03:36:16.983Z,6.90
2019-05-07T03:37:15.139Z,6.40
2019-05-07T03:38:15.130Z,7.20
2019-05-07T03:39:15.099Z,6.90
2019-05-07T03:40:15.090Z,7.00
2019-05-07T03:41:15.083Z,6.60
2019-05-07T03:42:15.068Z,6.40
2019-05-07T03:43:15.086Z,6.90
2019-05-07T03:44:15.046Z,7.40
2019-05-07T03:45:15.045Z,7.30
2019-05-07T03:46:15.042Z,7.20
2019-05-07T03:47:15.020Z,7.20
2019-05-07T03:48:15.022Z,7.20
2019-05-07T03:49:15.015Z,8.00
2019-05-07T03:50:15.148Z,7.70
2019-05-07T03:51:14.988Z,7.50
2019-05-07T03:52:14.968Z,8.20
2019-05-07T03:53:14.960Z,8.50
2019-05-07T03:54:14.978Z,8.50
2019-05-07T03:55:15.046Z,8.00
2019-05-07T03:56:14.921Z,8.60
2019-05-07T03:57:15.981Z,8.60
2019-05-07T03:58:15.058Z,8.70
2019-05-07T03:59:14.913Z,8.20
2019-05-07T04:00:14.881Z,8.30
2019-05-07T04:01:14.868Z,7.50
2019-05-07T04:02:14.852Z,7.70
2019-05-07T04:03:19.007Z,8.60
2019-05-07T04:04:15.854Z,7.70
2019-05-07T04:05:14.824Z,8.40
2019-05-07T04:06:14.817Z,7.80
2019-05-07T04:07:14.803Z,8.20
2019-05-07T04:08:14.787Z,8.20
2019-05-07T04:09:14.790Z,8.50
2019-05-07T04:10:15.378Z,8.70
2019-05-07T04:11:14.761Z,8.20
2019-05-07T04:12:14.745Z,8.10
2019-05-07T04:13:14.732Z,8.50
2019-05-07T04:14:14.758Z,8.70
2019-05-07T04:15:18.844Z,8.80
2019-05-07T04:16:14.712Z,9.50
2019-05-07T04:17:22.227Z,9.20
2019-05-07T04:18:15.679Z,9.00
2019-05-07T04:19:14.692Z,9.10
2019-05-07T04:20:14.662Z,9.50
2019-05-07T04:21:14.653Z,9.50
2019-05-07T04:22:14.651Z,9.30
2019-05-07T04:23:14.630Z,9.50
2019-05-07T04:24:14.678Z,9.40
2019-05-07T04:25:14.611Z,9.20
2019-05-07T04:26:14.623Z,9.30
2019-05-07T04:27:14.584Z,9.70
2019-05-07T04:28:14.621Z,9.50
2019-05-07T04:29:14.581Z,9.50
2019-05-07T04:30:14.568Z,9.60
2019-05-07T04:31:14.542Z,9.40
2019-05-07T04:32:14.551Z,10.00
2019-05-07T04:33:14.528Z,9.80
2019-05-07T04:34:14.542Z,9.50
2019-05-07T04:35:14.506Z,9.20
2019-05-07T04:36:14.501Z,9.70
2019-05-07T04:37:14.482Z,9.70
2019-05-07T04:38:14.468Z,9.90
2019-05-07T04:39:14.455Z,9.30
2019-05-07T04:40:14.475Z,9.40
2019-05-07T04:41:14.434Z,10.30
2019-05-07T04:42:14.437Z,9.80
2019-05-07T04:43:14.423Z,9.50
2019-05-07T04:44:14.541Z,10.00
2019-05-07T04:45:14.413Z,9.60
2019-05-07T04:46:14.685Z,9.60
2019-05-07T04:47:32.250Z,10.30
2019-05-07T04:48:15.489Z,9.50
2019-05-07T04:49:14.365Z,9.70
2019-05-07T04:50:33.707Z,9.30
2019-05-07T04:51:15.377Z,9.20
2019-05-07T04:52:15.246Z,9.10
2019-05-07T04:53:14.300Z,9.00
2019-05-07T04:54:14.305Z,8.80
2019-05-07T04:55:14.359Z,8.60
2019-05-07T04:56:14.312Z,9.90
2019-05-07T04:57:14.280Z,9.30
2019-05-07T04:58:14.348Z,8.70
2019-05-07T04:59:14.251Z,9.00
2019-05-07T05:00:14.233Z,8.70
2019-05-07T05:01:14.228Z,8.90
2019-05-07T05:02:14.230Z,9.00
2019-05-07T05:03:14.204Z,9.40
2019-05-07T05:04:25.178Z,8.70
2019-05-07T05:05:15.173Z,8.70
2019-05-07T05:06:14.236Z,9.00
2019-05-07T05:07:14.484Z,9.20
2019-05-07T05:08:14.139Z,9.20
2019-05-07T05:09:14.155Z,9.70
2019-05-07T05:10:14.126Z,9.60
2019-05-07T05:11:14.119Z,9.90
2019-05-07T05:12:14.112Z,9.90
2019-05-07T05:13:14.117Z,10.00
2019-05-07T05:14:14.096Z,10.60
2019-05-07T05:15:14.078Z,9.70
2019-05-07T05:16:14.051Z,10.00
2019-05-07T05:17:14.050Z,9.60
2019-05-07T05:18:14.034Z,9.40
2019-05-07T05:19:14.048Z,9.80
2019-05-07T05:20:14.023Z,10.00
2019-05-07T05:21:14.003Z,10.00
2019-05-07T05:22:13.998Z,9.50
2019-05-07T05:23:14.005Z,9.50
2019-05-07T05:24:14.007Z,9.80
2019-05-07T05:25:13.959Z,9.40
2019-05-07T05:26:13.952Z,9.40
2019-05-07T05:27:13.943Z,9.40
2019-05-07T05:28:13.932Z,9.70
2019-05-07T05:29:13.916Z,7.80
2019-05-07T05:30:13.931Z,8.10
2019-05-07T05:31:13.938Z,7.80
2019-05-07T05:32:13.896Z,7.60
2019-05-07T05:33:13.877Z,7.80
2019-05-07T05:34:13.870Z,7.60
2019-05-07T05:35:13.880Z,7.20
2019-05-07T05:36:13.841Z,7.70
2019-05-07T05:37:13.836Z,7.40
2019-05-07T05:38:13.843Z,7.30
2019-05-07T05:39:13.815Z,7.20
2019-05-07T05:40:13.825Z,7.60
2019-05-07T05:41:13.820Z,7.90
2019-05-07T05:42:13.772Z,7.50
2019-05-07T05:43:13.761Z,7.90
2019-05-07T05:44:13.760Z,7.60
2019-05-07T05:45:13.836Z,7.70
2019-05-07T05:46:13.754Z,7.20
2019-05-07T05:47:13.738Z,7.60
2019-05-07T05:48:13.876Z,8.50
2019-05-07T05:49:13.711Z,7.40
2019-05-07T05:50:13.701Z,7.60
2019-05-07T05:51:13.684Z,8.10
2019-05-07T05:52:13.770Z,8.10
2019-05-07T05:53:13.661Z,7.80
2019-05-07T05:54:13.741Z,7.50
2019-05-07T05:55:13.640Z,7.40
2019-05-07T05:56:13.675Z,7.60
2019-05-07T05:57:13.618Z,8.50
2019-05-07T05:58:13.630Z,7.20
2019-05-07T05:59:23.724Z,7.60
2019-05-07T06:00:14.598Z,8.30
2019-05-07T06:01:13.576Z,8.20
2019-05-07T06:02:13.581Z,7.40
2019-05-07T06:03:13.583Z,8.20
2019-05-07T06:04:13.547Z,7.70
2019-05-07T06:05:13.549Z,7.80
2019-05-07T06:06:13.532Z,7.90
2019-05-07T06:07:14.608Z,7.40
2019-05-07T06:08:13.501Z,7.60
2019-05-07T06:09:13.507Z,7.20
2019-05-07T06:10:13.482Z,7.60
2019-05-07T06:11:13.468Z,7.80
2019-05-07T06:12:13.501Z,7.70
2019-05-07T06:13:13.460Z,7.30
2019-05-07T06:14:13.444Z,7.70
2019-05-07T06:15:13.465Z,7.60
2019-05-07T06:16:13.408Z,7.60
2019-05-07T06:17:13.407Z,7.90
2019-05-07T06:18:20.958Z,8.10
2019-05-07T06:19:14.399Z,8.20
2019-05-07T06:20:13.385Z,8.00
2019-05-07T06:21:13.362Z,7.00
2019-05-07T06:22:16.471Z,7.50
2019-05-07T06:23:13.348Z,6.90
2019-05-07T06:24:13.369Z,7.40
2019-05-07T06:25:14.770Z,7.80
2019-05-07T06:26:13.313Z,6.90
2019-05-07T06:27:13.310Z,7.20
2019-05-07T06:28:13.280Z,6.00
2019-05-07T06:29:13.284Z,6.30
2019-05-07T06:30:13.331Z,6.00
2019-05-07T06:31:13.250Z,6.10
2019-05-07T06:32:13.242Z,5.80
2019-05-07T06:33:13.240Z,5.90
2019-05-07T06:34:13.253Z,6.00
2019-05-07T06:35:13.260Z,6.10
2019-05-07T06:36:13.199Z,6.20
2019-05-07T06:37:13.218Z,6.30
2019-05-07T06:38:13.200Z,5.60
2019-05-07T06:39:13.230Z,6.30
2019-05-07T06:40:13.167Z,6.20
2019-05-07T06:41:13.234Z,6.40
2019-05-07T06:42:13.135Z,6.30
2019-05-07T06:43:13.125Z,6.20
2019-05-07T06:44:13.137Z,6.30
2019-05-07T06:45:13.176Z,5.90
2019-05-07T06:46:13.108Z,6.00
2019-05-07T06:47:13.213Z,6.10
2019-05-07T06:48:13.082Z,5.60
2019-05-07T06:49:13.067Z,5.80
2019-05-07T06:50:13.072Z,5.60
2019-05-07T06:51:13.059Z,5.70
2019-05-07T06:52:13.028Z,5.60
2019-05-07T06:53:13.017Z,5.10
2019-05-07T06:54:13.087Z,5.70
2019-05-07T06:55:12.991Z,5.90
2019-05-07T06:56:13.022Z,5.50
2019-05-07T06:57:13.135Z,5.70
2019-05-07T06:58:12.970Z,5.50
2019-05-07T06:59:13.090Z,5.50
2019-05-07T07:00:12.943Z,5.30
2019-05-07T07:01:12.930Z,5.40
2019-05-07T07:02:12.954Z,5.30
2019-05-07T07:03:12.914Z,4.60
2019-05-07T07:04:13.077Z,4.90
2019-05-07T07:05:12.936Z,5.00
2019-05-07T07:06:12.889Z,5.10
2019-05-07T07:07:26.625Z,5.10
2019-05-07T07:08:13.897Z,4.80
2019-05-07T07:09:12.854Z,5.20
2019-05-07T07:10:12.841Z,5.00
2019-05-07T07:11:12.993Z,5.00
2019-05-07T07:12:13.027Z,5.30
2019-05-07T07:13:12.845Z,4.60
2019-05-07T07:14:12.796Z,4.80
2019-05-07T07:15:12.793Z,5.20
2019-05-07T07:16:12.835Z,4.80
2019-05-07T07:17:13.014Z,4.50
2019-05-07T07:18:12.756Z,4.70
2019-05-07T07:19:12.769Z,4.60
2019-05-07T07:20:12.854Z,4.60
2019-05-07T07:21:12.738Z,5.00
2019-05-07T07:22:13.059Z,4.30
2019-05-07T07:23:12.707Z,4.50
2019-05-07T07:24:12.884Z,4.80
2019-05-07T07:25:12.688Z,4.10
2019-05-07T07:26:12.793Z,4.50
2019-05-07T07:27:13.281Z,4.90
2019-05-07T07:28:12.695Z,5.50
2019-05-07T07:29:12.833Z,4.20
2019-05-07T07:30:12.884Z,3.60
2019-05-07T07:31:13.063Z,3.70
2019-05-07T07:32:12.807Z,3.80
2019-05-07T07:33:12.603Z,4.20
2019-05-07T07:34:13.082Z,3.70
2019-05-07T07:35:12.998Z,4.00
2019-05-07T07:36:12.643Z,3.80
2019-05-07T07:37:15.595Z,4.10
2019-05-07T07:38:12.541Z,4.20
2019-05-07T07:39:12.761Z,4.30
2019-05-07T07:40:12.951Z,4.10
2019-05-07T07:41:12.797Z,4.40
2019-05-07T07:42:12.524Z,4.30
2019-05-07T07:43:12.991Z,3.90
2019-05-07T07:44:13.364Z,3.40
2019-05-07T07:45:12.481Z,3.20
2019-05-07T07:46:13.883Z,3.00
2019-05-07T07:47:13.029Z,2.80
2019-05-07T07:48:13.132Z,2.80
2019-05-07T07:49:14.913Z,3.50
2019-05-07T07:50:12.983Z,3.50
2019-05-07T07:51:13.758Z,3.30
2019-05-07T07:52:12.399Z,3.50
2019-05-07T07:53:13.056Z,3.30
2019-05-07T07:54:13.137Z,2.60
2019-05-07T07:55:12.742Z,3.20
2019-05-07T07:56:12.367Z,2.90
2019-05-07T07:57:12.704Z,2.30
2019-05-07T07:58:12.367Z,2.80
2019-05-07T07:59:12.711Z,2.70
2019-05-07T08:00:12.311Z,2.60
2019-05-07T08:01:12.359Z,2.80
2019-05-07T08:02:12.500Z,3.00
2019-05-07T08:03:13.402Z,2.70
2019-05-07T08:04:12.465Z,2.80
2019-05-07T08:05:12.572Z,2.90
2019-05-07T08:06:12.252Z,2.80
2019-05-07T08:07:12.533Z,2.70
2019-05-07T08:08:12.802Z,3.00
2019-05-07T08:09:12.951Z,3.00
2019-05-07T08:10:13.416Z,3.30
2019-05-07T08:11:14.494Z,2.90
2019-05-07T08:12:12.861Z,3.20
2019-05-07T08:13:12.346Z,3.00
2019-05-07T08:14:12.721Z,2.70
2019-05-07T08:15:18.170Z,2.90
2019-05-07T08:16:13.152Z,2.90
2019-05-07T08:17:13.081Z,2.80
2019-05-07T08:18:12.177Z,2.70
2019-05-07T08:19:21.835Z,2.90
2019-05-07T08:20:13.118Z,3.10
2019-05-07T08:21:12.113Z,3.20
2019-05-07T08:22:12.240Z,2.70
2019-05-07T08:23:12.301Z,2.80
2019-05-07T08:24:12.369Z,2.70
2019-05-07T08:25:12.566Z,2.70
2019-05-07T08:26:12.669Z,2.30
2019-05-07T08:27:14.782Z,2.30
2019-05-07T08:28:12.015Z,2.30
2019-05-07T08:29:12.121Z,2.60
2019-05-07T08:30:12.010Z,2.60
2019-05-07T08:31:12.123Z,2.30
2019-05-07T08:32:12.606Z,1.90
2019-05-07T08:33:14.651Z,2.10
2019-05-07T08:34:14.028Z,2.40
2019-05-07T08:35:14.100Z,2.00
2019-05-07T08:36:14.670Z,2.10
2019-05-07T08:37:12.137Z,2.30
2019-05-07T08:38:12.750Z,2.20
2019-05-07T08:39:13.039Z,2.70
2019-05-07T08:40:12.833Z,2.40
2019-05-07T08:41:12.038Z,2.50
2019-05-07T08:42:12.385Z,2.50
2019-05-07T08:43:12.580Z,2.40
2019-05-07T08:44:15.252Z,2.60
2019-05-07T08:45:12.049Z,2.60
2019-05-07T08:46:12.039Z,2.50
2019-05-07T08:47:12.305Z,2.40
2019-05-07T08:48:12.599Z,2.60
2019-05-07T08:49:12.177Z,2.50
2019-05-07T08:50:11.904Z,2.30
2019-05-07T08:51:12.004Z,2.70
2019-05-07T08:52:12.083Z,2.60
2019-05-07T08:53:13.182Z,2.50
2019-05-07T08:54:12.367Z,2.70
2019-05-07T08:55:12.536Z,2.30
2019-05-07T08:56:12.498Z,2.50
2019-05-07T08:57:12.119Z,2.20
2019-05-07T08:58:12.040Z,2.30
2019-05-07T08:59:12.455Z,2.60
2019-05-07T09:00:12.363Z,2.50
2019-05-07T09:01:11.963Z,2.40
2019-05-07T09:02:12.568Z,2.60
2019-05-07T09:03:20.131Z,2.30
2019-05-07T09:04:13.425Z,2.50
2019-05-07T09:05:12.133Z,2.40
2019-05-07T09:06:11.758Z,2.90
2019-05-07T09:07:13.076Z,3.00
2019-05-07T09:08:12.838Z,2.50
2019-05-07T09:09:13.059Z,2.70
2019-05-07T09:10:12.645Z,2.80
2019-05-07T09:11:13.316Z,2.40
2019-05-07T09:12:12.453Z,2.40
2019-05-07T09:13:12.605Z,2.50
2019-05-07T09:14:12.563Z,2.60
2019-05-07T09:15:12.479Z,2.80
2019-05-07T09:16:12.924Z,3.20
2019-05-07T09:17:12.740Z,2.60
2019-05-07T09:18:12.376Z,3.00
2019-05-07T09:19:12.842Z,2.90
2019-05-07T09:20:12.547Z,3.00
2019-05-07T09:21:12.625Z,2.60
2019-05-07T09:22:12.727Z,2.80
2019-05-07T09:23:12.206Z,2.30
2019-05-07T09:24:12.210Z,3.00
2019-05-07T09:25:12.937Z,2.60
2019-05-07T09:26:13.019Z,2.80
2019-05-07T09:27:12.169Z,2.80
2019-05-07T09:28:11.901Z,2.30
2019-05-07T09:29:11.794Z,2.50
2019-05-07T09:30:12.793Z,2.70
2019-05-07T09:31:12.065Z,2.50
2019-05-07T09:32:12.077Z,2.40
2019-05-07T09:33:12.471Z,3.00
2019-05-07T09:34:11.788Z,2.90
2019-05-07T09:35:12.511Z,2.90
2019-05-07T09:36:12.131Z,3.00
2019-05-07T09:37:12.413Z,2.50
2019-05-07T09:38:12.174Z,2.70
2019-05-07T09:39:12.078Z,2.60
2019-05-07T09:40:12.632Z,2.40
2019-05-07T09:41:12.015Z,2.60
2019-05-07T09:42:12.200Z,2.80
2019-05-07T09:43:11.704Z,2.60
2019-05-07T09:44:11.927Z,2.70
2019-05-07T09:45:12.099Z,2.90
2019-05-07T09:46:12.589Z,3.50
2019-05-07T09:47:12.889Z,2.70
2019-05-07T09:48:11.972Z,2.60
2019-05-07T09:49:12.037Z,2.20
2019-05-07T09:50:11.955Z,2.40
2019-05-07T09:51:12.252Z,2.10
2019-05-07T09:52:12.271Z,2.10
2019-05-07T09:53:12.729Z,2.40
2019-05-07T09:54:12.692Z,2.90
2019-05-07T09:55:16.663Z,2.40
2019-05-07T09:56:12.408Z,2.20
2019-05-07T09:57:25.206Z,2.90
2019-05-07T09:58:12.563Z,2.60
2019-05-07T09:59:12.581Z,2.70
2019-05-07T10:00:12.335Z,2.70
2019-05-07T10:01:12.543Z,2.50
2019-05-07T10:02:12.247Z,2.40
2019-05-07T10:03:12.622Z,2.40
2019-05-07T10:04:11.174Z,2.20
2019-05-07T10:05:10.978Z,2.60
2019-05-07T10:06:12.422Z,2.50
2019-05-07T10:07:12.734Z,2.60
2019-05-07T10:08:12.858Z,2.40
2019-05-07T10:09:12.035Z,2.40
2019-05-07T10:10:12.001Z,2.20
2019-05-07T10:11:12.112Z,2.50
2019-05-07T10:12:12.206Z,2.10
2019-05-07T10:13:12.187Z,2.60
2019-05-07T10:14:12.401Z,2.60
2019-05-07T10:15:12.280Z,2.70
2019-05-07T10:16:12.687Z,2.30
2019-05-07T10:17:11.983Z,2.30
2019-05-07T10:18:12.364Z,2.40
2019-05-07T10:19:10.826Z,2.90
2019-05-07T10:20:19.297Z,2.50
2019-05-07T10:21:12.755Z,2.30
2019-05-07T10:22:12.614Z,2.00
2019-05-07T10:23:11.660Z,2.50
2019-05-07T10:24:12.847Z,2.30
2019-05-07T10:25:12.189Z,2.20
2019-05-07T10:26:12.195Z,2.00
2019-05-07T10:27:12.626Z,2.30
2019-05-07T10:28:12.491Z,2.20
2019-05-07T10:29:12.619Z,2.20
2019-05-07T10:30:12.688Z,2.40
2019-05-07T10:31:10.710Z,2.00
2019-05-07T10:32:12.832Z,2.20
2019-05-07T10:33:12.344Z,2.30
2019-05-07T10:34:12.294Z,2.20
2019-05-07T10:35:12.530Z,2.10
2019-05-07T10:36:12.388Z,2.10
2019-05-07T10:37:12.017Z,2.10
2019-05-07T10:38:12.456Z,2.00
2019-05-07T10:39:12.717Z,2.10
2019-05-07T10:40:12.298Z,2.00
2019-05-07T10:41:12.165Z,1.90
2019-05-07T10:42:12.369Z,2.10
2019-05-07T10:43:10.561Z,10.70
2019-05-07T10:44:11.875Z,9.20
2019-05-07T10:45:10.571Z,4.50
2019-05-07T10:46:12.628Z,12.60
2019-05-07T10:47:12.098Z,5.00
2019-05-07T10:48:11.684Z,2.50
2019-05-07T10:49:12.340Z,2.70
2019-05-07T10:50:11.906Z,2.00
2019-05-07T10:51:10.521Z,2.00
2019-05-07T10:52:12.431Z,2.20
2019-05-07T10:53:12.420Z,2.40
2019-05-07T10:54:12.260Z,2.50
2019-05-07T10:55:12.049Z,2.40
2019-05-07T10:56:11.845Z,2.20
2019-05-07T10:57:11.965Z,2.20
2019-05-07T10:58:10.411Z,2.40
2019-05-07T10:59:12.198Z,1.80
2019-05-07T11:00:12.251Z,2.30
2019-05-07T11:01:12.067Z,2.30
2019-05-07T11:02:12.496Z,3.60
2019-05-07T11:03:12.468Z,2.50
2019-05-07T11:04:12.665Z,2.60
2019-05-07T11:05:12.775Z,2.20
2019-05-07T11:06:11.990Z,1.90
2019-05-07T11:07:10.463Z,1.90
2019-05-07T11:08:10.318Z,2.00
2019-05-07T11:09:10.284Z,2.10
2019-05-07T11:10:12.209Z,2.10
2019-05-07T11:11:10.266Z,2.60
2019-05-07T11:12:10.252Z,2.20
2019-05-07T11:13:12.653Z,2.30
2019-05-07T11:14:12.189Z,1.90
2019-05-07T11:15:12.418Z,2.20
2019-05-07T11:16:11.755Z,2.00
2019-05-07T11:17:11.846Z,2.10
2019-05-07T11:18:12.242Z,1.90
2019-05-07T11:19:12.230Z,2.20
2019-05-07T11:20:12.173Z,1.90
2019-05-07T11:21:11.883Z,2.20
2019-05-07T11:22:11.618Z,2.00
2019-05-07T11:23:10.125Z,2.20
2019-05-07T11:24:11.987Z,2.10
2019-05-07T11:25:12.078Z,1.90
2019-05-07T11:26:11.768Z,2.00
2019-05-07T11:27:11.895Z,1.90
2019-05-07T11:28:12.131Z,2.00
2019-05-07T11:29:10.061Z,1.90
2019-05-07T11:30:11.911Z,2.40
2019-05-07T11:31:12.041Z,2.90
2019-05-07T11:32:12.224Z,2.10
2019-05-07T11:33:10.015Z,2.20
2019-05-07T11:34:11.979Z,2.20
2019-05-07T11:35:11.775Z,2.10
2019-05-07T11:36:10.015Z,2.50
2019-05-07T11:37:11.925Z,2.30
2019-05-07T11:38:18.687Z,2.30
2019-05-07T11:39:12.196Z,2.20
2019-05-07T11:40:09.949Z,2.40
2019-05-07T11:41:09.932Z,2.30
2019-05-07T11:42:09.948Z,2.20
2019-05-07T11:43:09.912Z,2.20
2019-05-07T11:44:12.256Z,2.30
2019-05-07T11:45:12.154Z,3.90
2019-05-07T11:46:12.907Z,14.90
2019-05-07T11:47:12.184Z,14.60
2019-05-07T11:48:09.876Z,52.10
2019-05-07T11:49:11.550Z,6.00
2019-05-07T11:50:14.371Z,2.30
2019-05-07T11:51:09.835Z,2.20
2019-05-07T11:52:09.833Z,2.10
2019-05-07T11:53:09.817Z,2.00
2019-05-07T11:54:09.799Z,2.10
2019-05-07T11:55:11.938Z,2.00
2019-05-07T11:56:11.656Z,1.90
2019-05-07T11:57:11.597Z,2.30
2019-05-07T11:58:09.754Z,2.00
2019-05-07T11:59:09.751Z,1.70
2019-05-07T12:00:09.742Z,2.10
2019-05-07T12:01:09.721Z,2.00
2019-05-07T12:02:09.715Z,2.00
2019-05-07T12:03:09.725Z,2.10
2019-05-07T12:04:09.701Z,1.80
2019-05-07T12:05:09.688Z,2.00
2019-05-07T12:06:09.665Z,1.80
2019-05-07T12:07:11.757Z,2.10
2019-05-07T12:08:09.664Z,1.90
2019-05-07T12:09:09.637Z,1.90
2019-05-07T12:10:09.625Z,1.80
2019-05-07T12:11:11.778Z,1.80
2019-05-07T12:12:09.614Z,1.90
2019-05-07T12:13:09.625Z,1.80
2019-05-07T12:14:09.583Z,1.90
2019-05-07T12:15:09.573Z,1.70
2019-05-07T12:16:12.059Z,1.90
2019-05-07T12:17:11.843Z,1.80
2019-05-07T12:18:11.769Z,1.60
2019-05-07T12:19:09.539Z,1.70
2019-05-07T12:20:09.525Z,1.70
2019-05-07T12:21:18.305Z,1.90
2019-05-07T12:22:12.086Z,2.30
2019-05-07T12:23:12.013Z,2.10
2019-05-07T12:24:09.471Z,1.90
2019-05-07T12:25:09.479Z,1.90
2019-05-07T12:26:09.455Z,1.90
2019-05-07T12:27:09.458Z,2.00
2019-05-07T12:28:09.452Z,1.80
2019-05-07T12:29:11.645Z,1.90
2019-05-07T12:30:09.408Z,1.80
2019-05-07T12:31:09.406Z,1.70
2019-05-07T12:32:09.387Z,1.90
2019-05-07T12:33:09.613Z,2.00
2019-05-07T12:34:09.381Z,2.00
2019-05-07T12:35:09.371Z,2.20
2019-05-07T12:36:09.350Z,2.30
2019-05-07T12:37:09.338Z,2.10
2019-05-07T12:38:09.359Z,2.20
2019-05-07T12:39:09.343Z,2.10
2019-05-07T12:40:09.321Z,2.10
2019-05-07T12:41:09.311Z,2.10
2019-05-07T12:42:09.283Z,2.00
2019-05-07T12:43:10.531Z,2.00
2019-05-07T12:44:09.276Z,2.10
2019-05-07T12:45:09.253Z,1.90
2019-05-07T12:46:09.242Z,2.10
2019-05-07T12:47:09.226Z,1.60
2019-05-07T12:48:11.499Z,1.80
2019-05-07T12:49:09.235Z,1.80
2019-05-07T12:50:09.198Z,1.80
2019-05-07T12:51:09.204Z,2.10
2019-05-07T12:52:09.187Z,2.00
2019-05-07T12:53:09.179Z,2.00
2019-05-07T12:54:09.186Z,2.10
2019-05-07T12:55:09.199Z,2.90
2019-05-07T12:56:09.130Z,2.00
2019-05-07T12:57:09.122Z,2.00
2019-05-07T12:58:09.126Z,2.30
2019-05-07T12:59:09.109Z,1.80
2019-05-07T13:00:09.137Z,2.20
2019-05-07T13:01:09.087Z,2.00
2019-05-07T13:02:21.385Z,2.10
2019-05-07T13:03:10.058Z,2.10
2019-05-07T13:04:09.055Z,2.20
2019-05-07T13:05:09.070Z,2.10
2019-05-07T13:06:09.036Z,1.90
2019-05-07T13:07:09.022Z,2.20
2019-05-07T13:08:09.002Z,2.10
2019-05-07T13:09:09.002Z,2.30
2019-05-07T13:10:09.199Z,2.00
2019-05-07T13:11:08.978Z,2.30
2019-05-07T13:12:08.985Z,1.90
2019-05-07T13:13:08.955Z,1.90
2019-05-07T13:14:09.217Z,2.10
2019-05-07T13:15:22.007Z,2.10
2019-05-07T13:16:09.918Z,2.00
2019-05-07T13:17:08.909Z,2.30
2019-05-07T13:18:08.913Z,2.60